createdAt,value
2023-02-02T00:01:56.485Z,102240.37
2023-02-02T00:04:28.412Z,102249.92
2023-02-02T00:06:57.921Z,102246.16
2023-02-02T00:09:30.249Z,102248.39
2023-02-02T00:12:00.605Z,102238.69
2023-02-02T00:14:30.483Z,102244.84
2023-02-02T00:17:00.262Z,102238.28
2023-02-02T00:19:31.680Z,102240.45
2023-02-02T00:22:01.103Z,102244.55
2023-02-02T00:24:30.343Z,102243.69
2023-02-02T00:27:01.590Z,102243.61
2023-02-02T00:29:32.223Z,102242.38
2023-02-02T00:32:01.566Z,102244.53
2023-02-02T00:34:31.083Z,102249.77
2023-02-02T00:37:00.360Z,102242.77
2023-02-02T00:39:30.941Z,102250.86
2023-02-02T00:42:00.211Z,102255.95
2023-02-02T00:44:47.288Z,102264.59
2023-02-02T00:47:17.971Z,102252.72
2023-02-02T00:49:47.497Z,102255.25
2023-02-02T00:52:16.808Z,102264.11
2023-02-02T00:54:47.238Z,102272.55
2023-02-02T00:57:16.804Z,102271.69
2023-02-02T00:59:46.045Z,102275.24
2023-02-02T01:02:15.454Z,102269.37
2023-02-02T01:04:44.721Z,102271.92
2023-02-02T01:07:13.955Z,102270.53
2023-02-02T01:09:43.226Z,102259.59
2023-02-02T01:12:12.549Z,102266.75
2023-02-02T01:14:41.773Z,102260.56
2023-02-02T01:17:11.356Z,102256.18
2023-02-02T01:19:41.000Z,102265.89
2023-02-02T01:22:10.674Z,102256.89
2023-02-02T01:24:40.669Z,102259.89
2023-02-02T01:27:10.060Z,102267.91
2023-02-02T01:29:39.606Z,102270.16
2023-02-02T01:32:09.007Z,102266.05
2023-02-02T01:34:39.954Z,102263.34
2023-02-02T01:37:10.138Z,102266.91
2023-02-02T01:39:39.371Z,102265.66
2023-02-02T01:42:16.254Z,102260.56
2023-02-02T01:45:00.663Z,102259.26
2023-02-02T01:47:33.582Z,102257.57
2023-02-02T01:50:02.811Z,102255.33
2023-02-02T01:52:33.693Z,102244.09
2023-02-02T01:55:07.749Z,102250.80
2023-02-02T01:57:43.382Z,102256.94
2023-02-02T02:00:15.782Z,102254.88
2023-02-02T02:02:47.657Z,102256.64
2023-02-02T02:05:19.841Z,102265.28
2023-02-02T02:07:50.830Z,102276.86
2023-02-02T02:10:20.819Z,102274.46
2023-02-02T02:12:50.850Z,102268.81
2023-02-02T02:15:39.684Z,102271.77
2023-02-02T02:18:25.153Z,102264.91
2023-02-02T02:21:27.635Z,102262.87
2023-02-02T02:24:49.473Z,102268.21
2023-02-02T02:27:37.193Z,102268.77
2023-02-02T02:30:21.417Z,102261.28
2023-02-02T02:33:22.859Z,102271.89
2023-02-02T02:35:59.547Z,102275.22
2023-02-02T02:38:32.153Z,102280.80
2023-02-02T02:41:05.094Z,102271.81
2023-02-02T02:43:40.183Z,102271.14
2023-02-02T02:46:10.933Z,102273.53
2023-02-02T02:48:40.334Z,102273.53
2023-02-02T02:51:44.675Z,102273.08
2023-02-02T02:54:34.249Z,102267.20
2023-02-02T02:57:24.772Z,102268.06
2023-02-02T03:00:12.300Z,102268.29
2023-02-02T03:02:48.206Z,102265.82
2023-02-02T03:05:35.767Z,102272.22
2023-02-02T03:08:28.058Z,102277.23
2023-02-02T03:10:58.795Z,102276.23
2023-02-02T03:13:28.968Z,102274.09
2023-02-02T03:15:58.334Z,102274.09
2023-02-02T03:18:29.901Z,102274.84
2023-02-02T03:20:59.193Z,102273.52
2023-02-02T03:23:29.088Z,102263.89
2023-02-02T03:25:59.537Z,102252.39
2023-02-02T03:28:29.133Z,102246.77
2023-02-02T03:31:00.160Z,102253.41
2023-02-02T03:33:30.827Z,102260.82
2023-02-02T03:36:00.212Z,102258.13
2023-02-02T03:38:29.453Z,102254.72
2023-02-02T03:40:58.789Z,102256.73
2023-02-02T03:43:28.061Z,102270.00
2023-02-02T03:45:59.986Z,102273.00
2023-02-02T03:48:29.187Z,102275.62
2023-02-02T03:50:58.574Z,102277.39
2023-02-02T03:53:28.071Z,102283.41
2023-02-02T03:55:57.685Z,102287.20
2023-02-02T03:58:26.904Z,102287.27
2023-02-02T04:00:57.808Z,102286.11
2023-02-02T04:03:27.007Z,102287.42
2023-02-02T04:05:56.249Z,102287.05
2023-02-02T04:08:25.484Z,102300.38
2023-02-02T04:10:54.767Z,102295.91
2023-02-02T04:13:24.592Z,102296.07
2023-02-02T04:16:01.156Z,102294.27
2023-02-02T04:18:31.194Z,102296.22
2023-02-02T04:21:01.693Z,102298.28
2023-02-02T04:23:31.522Z,102300.00
2023-02-02T04:26:01.425Z,102302.92
2023-02-02T04:28:30.840Z,102300.75
2023-02-02T04:31:00.265Z,102298.13
2023-02-02T04:33:29.929Z,102295.13
2023-02-02T04:35:59.178Z,102293.22
2023-02-02T04:38:28.542Z,102293.30
2023-02-02T04:40:57.903Z,102292.59
2023-02-02T04:43:27.095Z,102299.67
2023-02-02T04:45:57.484Z,102298.77
2023-02-02T04:48:26.848Z,102291.73
2023-02-02T04:51:03.194Z,102286.41
2023-02-02T04:53:32.463Z,102281.31
2023-02-02T04:56:09.735Z,102288.13
2023-02-02T04:58:39.328Z,102297.75
2023-02-02T05:01:17.478Z,102302.55
2023-02-02T05:03:47.727Z,102303.16
2023-02-02T05:06:19.334Z,102311.95
2023-02-02T05:08:49.374Z,102308.77
2023-02-02T05:11:21.848Z,102309.56
2023-02-02T05:13:53.209Z,102305.78
2023-02-02T05:16:23.730Z,102314.35
2023-02-02T05:18:54.540Z,102306.00
2023-02-02T05:21:24.138Z,102303.53
2023-02-02T05:23:53.341Z,102299.52
2023-02-02T05:26:25.831Z,102303.61
2023-02-02T05:28:54.424Z,102308.14
2023-02-02T05:31:24.063Z,102298.89
2023-02-02T05:33:53.384Z,102305.22
2023-02-02T05:36:22.854Z,102311.84
2023-02-02T05:38:52.149Z,102323.46
2023-02-02T05:41:21.388Z,102310.05
2023-02-02T05:43:50.604Z,102312.45
2023-02-02T05:46:20.230Z,102309.79
2023-02-02T05:48:49.550Z,102306.61
2023-02-02T05:51:24.800Z,102301.21
2023-02-02T05:53:54.028Z,102313.98
2023-02-02T05:56:23.418Z,102307.44
2023-02-02T05:58:52.612Z,102305.75
2023-02-02T06:01:22.477Z,102302.19
2023-02-02T06:03:51.761Z,102306.68
2023-02-02T06:06:21.565Z,102311.70
2023-02-02T06:08:50.751Z,102309.00
2023-02-02T06:11:20.884Z,102309.98
2023-02-02T06:13:50.472Z,102321.25
2023-02-02T06:16:19.981Z,102315.08
2023-02-02T06:18:49.217Z,102312.98
2023-02-02T06:21:20.086Z,102320.31
2023-02-02T06:23:49.881Z,102323.53
2023-02-02T06:26:19.704Z,102325.95
2023-02-02T06:28:54.151Z,102331.77
2023-02-02T06:31:23.903Z,102335.54
2023-02-02T06:33:58.870Z,102336.79
2023-02-02T06:36:29.659Z,102341.51
2023-02-02T06:38:59.602Z,102342.37
2023-02-02T06:41:28.900Z,102349.30
2023-02-02T06:43:58.129Z,102347.39
2023-02-02T06:46:27.668Z,102349.00
2023-02-02T06:48:56.925Z,102368.14
2023-02-02T06:51:26.510Z,102359.05
2023-02-02T06:53:58.379Z,102362.08
2023-02-02T06:56:26.972Z,102367.09
2023-02-02T06:58:56.227Z,102363.05
2023-02-02T07:01:25.854Z,102370.47
2023-02-02T07:03:55.083Z,102361.59
2023-02-02T07:06:26.546Z,102373.55
2023-02-02T07:09:00.973Z,102366.91
2023-02-02T07:11:27.763Z,102366.72
2023-02-02T07:13:57.049Z,102367.87
2023-02-02T07:16:26.351Z,102362.39
2023-02-02T07:18:56.997Z,102362.13
2023-02-02T07:21:29.371Z,102359.00
2023-02-02T07:23:59.470Z,102355.56
2023-02-02T07:26:30.006Z,102366.04
2023-02-02T07:28:59.538Z,102373.55
2023-02-02T07:31:29.789Z,102375.00
2023-02-02T07:33:59.425Z,102374.92
2023-02-02T07:36:28.871Z,102379.61
2023-02-02T07:38:58.291Z,102367.63
2023-02-02T07:41:28.042Z,102370.44
2023-02-02T07:43:57.260Z,102374.13
2023-02-02T07:46:26.775Z,102361.39
2023-02-02T07:48:57.144Z,102379.61
2023-02-02T07:51:27.308Z,102370.30
2023-02-02T07:53:58.493Z,102380.90
2023-02-02T07:56:29.237Z,102377.61
2023-02-02T07:58:59.046Z,102394.31
2023-02-02T08:01:29.518Z,102395.41
2023-02-02T08:04:01.367Z,102401.44
2023-02-02T08:06:33.191Z,102408.78
2023-02-02T08:09:03.519Z,102422.34
2023-02-02T08:11:33.367Z,102417.81
2023-02-02T08:14:03.876Z,102415.42
2023-02-02T08:16:34.132Z,102417.07
2023-02-02T08:19:03.565Z,102415.28
2023-02-02T08:21:35.896Z,102418.31
2023-02-02T08:24:05.818Z,102414.68
2023-02-02T08:26:35.389Z,102419.70
2023-02-02T08:29:08.074Z,102414.84
2023-02-02T08:31:41.842Z,102412.77
2023-02-02T08:34:12.465Z,102417.08
2023-02-02T08:36:42.057Z,102426.90
2023-02-02T08:39:14.499Z,102420.08
2023-02-02T08:41:43.058Z,102425.17
2023-02-02T08:44:15.138Z,102434.78
2023-02-02T08:46:44.556Z,102435.11
2023-02-02T08:49:15.263Z,102445.05
2023-02-02T08:51:44.721Z,102445.69
2023-02-02T08:54:14.466Z,102458.35
2023-02-02T08:56:44.101Z,102463.38
2023-02-02T08:59:13.487Z,102461.84
2023-02-02T09:01:43.387Z,102463.30
2023-02-02T09:04:17.065Z,102471.96
2023-02-02T09:06:46.642Z,102480.36
2023-02-02T09:09:17.131Z,102482.67
2023-02-02T09:11:46.772Z,102481.03
2023-02-02T09:14:16.061Z,102467.54
2023-02-02T09:16:45.749Z,102477.02
2023-02-02T09:19:15.075Z,102473.53
2023-02-02T09:21:44.540Z,102485.08
2023-02-02T09:24:15.069Z,102477.51
2023-02-02T09:26:45.922Z,102495.88
2023-02-02T09:29:18.043Z,102487.41
2023-02-02T09:31:47.960Z,102500.19
2023-02-02T09:34:17.680Z,102500.48
2023-02-02T09:36:47.745Z,102506.22
2023-02-02T09:39:18.472Z,102514.77
2023-02-02T09:42:06.017Z,102502.36
2023-02-02T09:44:38.637Z,102509.67
2023-02-02T09:47:18.182Z,102517.09
2023-02-02T09:50:08.910Z,102517.66
2023-02-02T09:52:46.799Z,102530.85
2023-02-02T09:55:19.929Z,102530.52
2023-02-02T09:57:51.840Z,102528.75
2023-02-02T10:00:45.812Z,102531.87
2023-02-02T10:03:24.465Z,102526.39
2023-02-02T10:06:05.611Z,102513.73
2023-02-02T10:08:38.010Z,102521.16
2023-02-02T10:11:16.762Z,102526.33
2023-02-02T10:13:48.735Z,102515.57
2023-02-02T10:16:19.856Z,102528.00
2023-02-02T10:19:01.174Z,102524.53
2023-02-02T10:22:02.417Z,102511.87
2023-02-02T10:24:35.243Z,102519.35
2023-02-02T10:27:07.327Z,102526.41
2023-02-02T10:29:54.566Z,102536.73
2023-02-02T10:32:26.297Z,102546.23
2023-02-02T10:35:12.948Z,102548.00
2023-02-02T10:37:59.440Z,102539.34
2023-02-02T10:40:46.842Z,102542.91
2023-02-02T10:43:39.662Z,102554.95
2023-02-02T10:46:12.658Z,102533.94
2023-02-02T10:48:43.726Z,102549.39
2023-02-02T10:51:29.906Z,102542.98
2023-02-02T10:54:01.086Z,102544.06
2023-02-02T10:56:38.994Z,102556.59
2023-02-02T10:59:13.114Z,102547.48
2023-02-02T11:01:42.948Z,102549.50
2023-02-02T11:04:30.372Z,102558.84
2023-02-02T11:07:01.641Z,102564.24
2023-02-02T11:09:39.990Z,102560.00
2023-02-02T11:12:30.922Z,102563.69
2023-02-02T11:15:06.076Z,102554.49
2023-02-02T11:17:35.934Z,102547.80
2023-02-02T11:20:09.454Z,102543.25
2023-02-02T11:22:40.264Z,102539.16
2023-02-02T11:25:15.606Z,102549.73
2023-02-02T11:27:46.672Z,102544.47
2023-02-02T11:30:28.330Z,102544.86
2023-02-02T11:32:57.894Z,102550.41
2023-02-02T11:35:30.842Z,102546.62
2023-02-02T11:38:03.489Z,102530.63
2023-02-02T11:40:47.820Z,102548.02
2023-02-02T11:43:20.226Z,102546.62
2023-02-02T11:45:52.587Z,102546.56
2023-02-02T11:48:24.054Z,102551.81
2023-02-02T11:50:56.176Z,102548.95
2023-02-02T11:53:45.677Z,102545.55
2023-02-02T11:56:26.590Z,102541.16
2023-02-02T11:58:58.511Z,102553.83
2023-02-02T12:01:33.893Z,102543.94
2023-02-02T12:04:05.184Z,102548.33
2023-02-02T12:06:37.306Z,102544.47
2023-02-02T12:09:21.927Z,102540.05
2023-02-02T12:12:09.554Z,102552.98
2023-02-02T12:15:09.284Z,102554.75
2023-02-02T12:17:50.290Z,102556.27
2023-02-02T12:20:45.096Z,102553.06
2023-02-02T12:23:42.989Z,102545.45
2023-02-02T12:26:30.434Z,102549.89
2023-02-02T12:29:20.648Z,102553.11
2023-02-02T12:32:25.259Z,102543.02
2023-02-02T12:35:18.943Z,102535.47
2023-02-02T12:38:06.337Z,102534.50
2023-02-02T12:40:56.106Z,102541.01
2023-02-02T12:43:34.455Z,102535.84
2023-02-02T12:46:11.885Z,102541.73
2023-02-02T12:48:50.161Z,102548.95
2023-02-02T12:51:47.972Z,102539.98
2023-02-02T12:54:44.379Z,102541.45
2023-02-02T12:57:24.484Z,102524.53
2023-02-02T13:00:08.726Z,102533.86
2023-02-02T13:02:44.645Z,102525.48
2023-02-02T13:05:48.985Z,102515.27
2023-02-02T13:08:25.696Z,102522.20
2023-02-02T13:10:58.308Z,102512.73
2023-02-02T13:13:31.819Z,102507.12
2023-02-02T13:16:10.591Z,102516.87
2023-02-02T13:18:49.591Z,102514.17
2023-02-02T13:21:20.511Z,102514.48
2023-02-02T13:23:55.627Z,102505.25
2023-02-02T13:26:31.589Z,102512.13
2023-02-02T13:29:27.484Z,102512.30
2023-02-02T13:32:05.658Z,102510.73
2023-02-02T13:34:43.661Z,102507.50
2023-02-02T13:37:25.373Z,102508.22
2023-02-02T13:40:00.753Z,102516.17
2023-02-02T13:42:40.595Z,102510.09
2023-02-02T13:45:18.593Z,102519.49
2023-02-02T13:47:51.624Z,102513.11
2023-02-02T13:50:22.104Z,102514.23
2023-02-02T13:53:22.391Z,102521.34
2023-02-02T13:56:09.782Z,102524.38
2023-02-02T13:59:07.317Z,102520.20
2023-02-02T14:01:36.921Z,102526.69
2023-02-02T14:04:07.078Z,102526.00
2023-02-02T14:06:48.231Z,102523.31
2023-02-02T14:09:19.319Z,102525.59
2023-02-02T14:12:00.389Z,102524.14
2023-02-02T14:14:33.520Z,102529.87
2023-02-02T14:17:19.172Z,102529.34
2023-02-02T14:19:56.436Z,102536.73
2023-02-02T14:22:48.430Z,102544.34
2023-02-02T14:25:40.614Z,102539.11
2023-02-02T14:28:14.392Z,102536.10
2023-02-02T14:30:43.817Z,102546.31
2023-02-02T14:33:25.826Z,102543.62
2023-02-02T14:36:01.566Z,102546.66
2023-02-02T14:38:40.414Z,102544.34
2023-02-02T14:41:17.505Z,102546.31
2023-02-02T14:43:51.295Z,102546.77
2023-02-02T14:46:26.919Z,102555.56
2023-02-02T14:48:59.396Z,102552.88
2023-02-02T14:51:30.792Z,102552.52
2023-02-02T14:54:02.782Z,102560.80
2023-02-02T14:56:54.459Z,102556.14
2023-02-02T14:59:26.375Z,102571.28
2023-02-02T15:02:13.999Z,102559.94
2023-02-02T15:04:43.630Z,102562.36
2023-02-02T15:07:28.639Z,102567.15
2023-02-02T15:09:58.123Z,102570.95
2023-02-02T15:12:45.157Z,102571.33
2023-02-02T15:15:17.802Z,102575.53
2023-02-02T15:18:01.060Z,102570.81
2023-02-02T15:20:33.581Z,102563.88
2023-02-02T15:23:26.167Z,102563.39
2023-02-02T15:26:16.414Z,102564.33
2023-02-02T15:29:10.566Z,102565.50
2023-02-02T15:31:50.140Z,102558.87
2023-02-02T15:34:36.509Z,102550.88
2023-02-02T15:37:08.399Z,102555.05
2023-02-02T15:39:56.427Z,102555.13
2023-02-02T15:42:53.116Z,102561.53
2023-02-02T15:45:32.121Z,102565.81
2023-02-02T15:48:04.079Z,102569.16
2023-02-02T15:50:34.015Z,102572.54
2023-02-02T15:53:03.311Z,102578.13
2023-02-02T15:55:34.878Z,102577.58
2023-02-02T15:58:06.583Z,102578.37
2023-02-02T16:00:40.935Z,102583.09
2023-02-02T16:03:21.074Z,102580.47
2023-02-02T16:05:52.903Z,102583.09
2023-02-02T16:08:36.342Z,102584.27
2023-02-02T16:11:17.641Z,102583.48
2023-02-02T16:14:01.794Z,102587.17
2023-02-02T16:16:33.703Z,102592.86
2023-02-02T16:19:06.936Z,102593.31
2023-02-02T16:21:46.049Z,102602.84
2023-02-02T16:24:22.076Z,102598.63
2023-02-02T16:26:53.408Z,102605.66
2023-02-02T16:29:23.306Z,102611.29
2023-02-02T16:31:52.643Z,102613.33
2023-02-02T16:34:41.993Z,102609.98
2023-02-02T16:37:28.790Z,102612.33
2023-02-02T16:40:00.529Z,102615.02
2023-02-02T16:42:31.735Z,102616.27
2023-02-02T16:45:01.701Z,102617.27
2023-02-02T16:47:33.370Z,102624.13
2023-02-02T16:50:29.499Z,102625.82
2023-02-02T16:53:06.140Z,102628.45
2023-02-02T16:55:49.775Z,102630.82
2023-02-02T16:58:07.232Z,102629.52
2023-02-02T17:00:37.030Z,102627.27
2023-02-02T17:03:08.766Z,102634.48
2023-02-02T17:05:49.924Z,102633.76
2023-02-02T17:08:22.574Z,102637.25
2023-02-02T17:11:03.131Z,102636.45
2023-02-02T17:13:36.742Z,102635.34
2023-02-02T17:16:06.220Z,102639.63
2023-02-02T17:18:35.957Z,102646.94
2023-02-02T17:21:07.686Z,102642.31
2023-02-02T17:23:38.851Z,102632.78
2023-02-02T17:26:10.053Z,102639.83
2023-02-02T17:28:42.974Z,102642.38
2023-02-02T17:31:14.874Z,102648.32
2023-02-02T17:33:44.650Z,102646.25
2023-02-02T17:36:14.925Z,102644.94
2023-02-02T17:38:44.227Z,102651.14
2023-02-02T17:41:14.419Z,102654.63
2023-02-02T17:43:43.802Z,102651.94
2023-02-02T17:46:16.465Z,102658.88
2023-02-02T17:48:45.761Z,102657.91
2023-02-02T17:51:18.768Z,102660.92
2023-02-02T17:53:47.999Z,102658.02
2023-02-02T17:56:17.974Z,102655.75
2023-02-02T17:58:47.181Z,102660.20
2023-02-02T18:01:16.527Z,102657.44
2023-02-02T18:03:47.753Z,102654.81
2023-02-02T18:06:17.304Z,102657.30
2023-02-02T18:08:46.593Z,102657.16
2023-02-02T18:11:16.308Z,102650.36
2023-02-02T18:13:45.679Z,102650.29
2023-02-02T18:16:15.210Z,102647.84
2023-02-02T18:18:44.424Z,102650.47
2023-02-02T18:21:14.442Z,102641.42
2023-02-02T18:23:43.700Z,102640.70
2023-02-02T18:26:18.219Z,102634.52
2023-02-02T18:28:50.983Z,102642.38
2023-02-02T18:31:24.108Z,102636.63
2023-02-02T18:33:54.560Z,102636.86
2023-02-02T18:36:23.989Z,102633.13
2023-02-02T18:38:54.133Z,102635.76
2023-02-02T18:41:23.605Z,102622.19
2023-02-02T18:43:55.283Z,102625.98
2023-02-02T18:46:26.577Z,102630.09
2023-02-02T18:48:56.934Z,102626.29
2023-02-02T18:51:26.614Z,102622.12
2023-02-02T18:53:57.599Z,102627.09
2023-02-02T18:56:28.418Z,102624.47
2023-02-02T18:58:59.623Z,102631.16
2023-02-02T19:01:29.206Z,102628.67
2023-02-02T19:03:58.798Z,102631.52
2023-02-02T19:06:42.574Z,102630.92
2023-02-02T19:09:13.866Z,102627.64
2023-02-02T19:11:46.280Z,102633.24
2023-02-02T19:14:19.083Z,102632.83
2023-02-02T19:16:49.929Z,102632.23
2023-02-02T19:19:33.464Z,102628.69
2023-02-02T19:22:06.137Z,102619.57
2023-02-02T19:24:40.670Z,102626.58
2023-02-02T19:27:18.412Z,102621.59
2023-02-02T19:29:51.108Z,102629.92
2023-02-02T19:32:23.471Z,102629.13
2023-02-02T19:35:01.880Z,102618.11
2023-02-02T19:37:33.167Z,102609.21
2023-02-02T19:40:13.132Z,102612.80
2023-02-02T19:42:57.648Z,102611.77
2023-02-02T19:45:33.305Z,102613.45
2023-02-02T19:48:06.009Z,102616.87
2023-02-02T19:50:41.299Z,102626.05
2023-02-02T19:53:23.440Z,102628.30
2023-02-02T19:55:53.630Z,102622.39
2023-02-02T19:58:29.881Z,102628.61
2023-02-02T20:00:59.646Z,102621.36
2023-02-02T20:03:31.375Z,102622.67
2023-02-02T20:06:01.471Z,102632.69
2023-02-02T20:08:36.805Z,102620.13
2023-02-02T20:11:27.431Z,102630.34
2023-02-02T20:13:56.911Z,102629.86
2023-02-02T20:16:27.457Z,102634.34
2023-02-02T20:18:58.605Z,102626.85
2023-02-02T20:21:39.904Z,102629.20
2023-02-02T20:24:27.263Z,102638.83
2023-02-02T20:27:02.909Z,102624.30
2023-02-02T20:29:41.243Z,102643.48
2023-02-02T20:32:16.707Z,102641.00
2023-02-02T20:34:46.348Z,102640.72
2023-02-02T20:37:18.766Z,102645.08
2023-02-02T20:39:56.879Z,102652.67
2023-02-02T20:42:26.789Z,102660.41
2023-02-02T20:44:58.115Z,102657.57
2023-02-02T20:47:27.645Z,102655.43
2023-02-02T20:49:58.597Z,102652.43
2023-02-02T20:52:29.625Z,102656.40
2023-02-02T20:54:58.862Z,102645.31
2023-02-02T20:57:28.196Z,102662.82
2023-02-02T20:59:57.471Z,102665.92
2023-02-02T21:02:28.068Z,102662.51
2023-02-02T21:04:57.344Z,102661.44
2023-02-02T21:07:27.043Z,102644.80
2023-02-02T21:09:56.335Z,102654.36
2023-02-02T21:12:26.118Z,102660.67
2023-02-02T21:14:55.749Z,102655.53
2023-02-02T21:17:25.499Z,102664.41
2023-02-02T21:19:54.757Z,102654.22
2023-02-02T21:22:24.279Z,102654.12
2023-02-02T21:24:54.805Z,102656.26
2023-02-02T21:27:24.256Z,102652.66
2023-02-02T21:29:53.554Z,102655.39
2023-02-02T21:32:23.593Z,102667.86
2023-02-02T21:34:52.812Z,102678.91
2023-02-02T21:37:22.078Z,102668.65
2023-02-02T21:39:53.075Z,102668.30
2023-02-02T21:42:24.206Z,102662.40
2023-02-02T21:45:01.740Z,102662.09
2023-02-02T21:47:36.500Z,102653.36
2023-02-02T21:50:20.426Z,102660.77
2023-02-02T21:52:49.682Z,102658.75
2023-02-02T21:55:28.172Z,102642.48
2023-02-02T21:57:59.413Z,102645.25
2023-02-02T22:00:34.582Z,102650.50
2023-02-02T22:03:04.187Z,102651.81
2023-02-02T22:05:37.749Z,102655.44
2023-02-02T22:08:12.866Z,102667.70
2023-02-02T22:10:46.428Z,102667.70
2023-02-02T22:13:23.950Z,102663.55
2023-02-02T22:15:55.238Z,102651.29
2023-02-02T22:18:26.371Z,102646.80
2023-02-02T22:20:56.789Z,102648.90
2023-02-02T22:23:28.340Z,102637.68
2023-02-02T22:25:59.444Z,102639.47
2023-02-02T22:28:42.461Z,102646.65
2023-02-02T22:31:12.020Z,102639.27
2023-02-02T22:33:41.363Z,102638.30
2023-02-02T22:36:10.859Z,102639.27
2023-02-02T22:38:40.530Z,102631.95
2023-02-02T22:41:10.143Z,102625.24
2023-02-02T22:43:39.354Z,102615.48
2023-02-02T22:46:08.631Z,102619.23
2023-02-02T22:48:37.898Z,102625.48
2023-02-02T22:51:07.203Z,102627.95
2023-02-02T22:53:36.414Z,102627.88
2023-02-02T22:56:06.433Z,102629.73
2023-02-02T22:58:35.695Z,102634.91
2023-02-02T23:01:05.053Z,102625.48
2023-02-02T23:03:34.361Z,102623.58
2023-02-02T23:06:03.630Z,102607.97
2023-02-02T23:08:33.982Z,102613.22
2023-02-02T23:11:03.306Z,102615.13
2023-02-02T23:13:32.935Z,102610.89
2023-02-02T23:16:02.258Z,102587.78
2023-02-02T23:18:31.770Z,102578.98
2023-02-02T23:21:00.991Z,102571.52
2023-02-02T23:23:30.505Z,102562.06
2023-02-02T23:25:59.722Z,102564.31
2023-02-02T23:28:29.171Z,102559.36
2023-02-02T23:30:59.372Z,102562.06
2023-02-02T23:33:28.806Z,102575.05
2023-02-02T23:35:58.005Z,102575.91
2023-02-02T23:38:27.458Z,102576.77
2023-02-02T23:40:56.680Z,102583.18
2023-02-02T23:43:26.574Z,102577.52
2023-02-02T23:45:55.949Z,102575.76
2023-02-02T23:48:25.328Z,102569.64
2023-02-02T23:50:54.759Z,102569.13
2023-02-02T23:53:24.996Z,102574.97
2023-02-02T23:55:54.913Z,102589.59
2023-02-02T23:58:24.139Z,102579.02
